createdAt,value
2022-10-05T00:01:53.405Z,2.25
2022-10-05T00:04:23.532Z,3.13
2022-10-05T00:06:56.749Z,2.53
2022-10-05T00:09:24.330Z,3.15
2022-10-05T00:11:51.910Z,2.58
2022-10-05T00:14:31.655Z,2.28
2022-10-05T00:16:59.141Z,2.63
2022-10-05T00:19:32.796Z,2.42
2022-10-05T00:22:06.518Z,2.65
2022-10-05T00:24:33.713Z,2.50
2022-10-05T00:27:02.226Z,2.47
2022-10-05T00:29:29.349Z,2.67
2022-10-05T00:31:58.201Z,2.95
2022-10-05T00:34:25.885Z,2.50
2022-10-05T00:36:52.914Z,3.10
2022-10-05T00:39:20.237Z,2.40
2022-10-05T00:42:16.055Z,2.75
2022-10-05T00:45:13.269Z,2.45
2022-10-05T00:47:49.429Z,2.30
2022-10-05T00:50:36.626Z,2.20
2022-10-05T00:53:16.035Z,2.28
2022-10-05T00:55:58.286Z,2.33
2022-10-05T00:58:26.595Z,2.85
2022-10-05T01:01:22.069Z,2.45
2022-10-05T01:04:14.158Z,2.30
2022-10-05T01:07:00.315Z,2.70
2022-10-05T01:09:38.167Z,2.92
2022-10-05T01:12:37.763Z,2.47
2022-10-05T01:15:21.145Z,2.33
2022-10-05T01:18:14.449Z,2.75
2022-10-05T01:21:02.856Z,3.10
2022-10-05T01:24:02.090Z,2.40
2022-10-05T01:27:08.880Z,2.58
2022-10-05T01:29:52.142Z,2.58
2022-10-05T01:32:39.413Z,2.88
2022-10-05T01:35:12.644Z,2.55
2022-10-05T01:37:45.940Z,3.08
2022-10-05T01:40:31.746Z,2.53
2022-10-05T01:43:17.462Z,2.38
2022-10-05T01:45:50.526Z,2.10
2022-10-05T01:51:06.537Z,3.20
2022-10-05T01:53:56.017Z,3.45
2022-10-05T01:57:00.879Z,2.80
2022-10-05T02:00:07.908Z,2.60
2022-10-05T02:02:44.928Z,2.28
2022-10-05T02:05:20.442Z,2.45
2022-10-05T02:08:16.398Z,2.22
2022-10-05T02:11:03.097Z,2.80
2022-10-05T02:13:34.357Z,2.65
2022-10-05T02:16:07.520Z,2.45
2022-10-05T02:18:43.788Z,2.47
2022-10-05T02:21:11.302Z,2.55
2022-10-05T02:23:41.839Z,2.20
2022-10-05T02:26:11.575Z,2.75
2022-10-05T02:28:48.576Z,2.33
2022-10-05T02:31:29.666Z,2.10
2022-10-05T02:34:24.722Z,2.33
2022-10-05T02:37:21.550Z,2.78
2022-10-05T02:40:01.620Z,2.20
2022-10-05T02:42:56.551Z,2.40
2022-10-05T02:46:08.015Z,2.60
2022-10-05T02:49:18.021Z,2.30
2022-10-05T02:52:16.795Z,4.15
2022-10-05T02:55:19.512Z,3.95
2022-10-05T02:57:55.787Z,3.65
2022-10-05T03:00:27.176Z,3.83
2022-10-05T03:03:28.272Z,3.50
2022-10-05T03:06:00.733Z,3.13
2022-10-05T03:08:44.951Z,3.10
2022-10-05T03:11:54.625Z,3.28
2022-10-05T03:14:58.264Z,3.20
2022-10-05T03:17:35.029Z,3.17
2022-10-05T03:20:22.889Z,3.33
2022-10-05T03:22:59.080Z,3.15
2022-10-05T03:25:41.422Z,2.70
2022-10-05T03:28:25.255Z,2.85
2022-10-05T03:31:03.299Z,3.50
2022-10-05T03:33:56.830Z,3.08
2022-10-05T03:36:38.846Z,3.47
2022-10-05T03:39:17.691Z,2.95
2022-10-05T03:41:56.173Z,2.72
2022-10-05T03:44:43.404Z,2.85
2022-10-05T03:47:42.985Z,3.08
2022-10-05T03:50:34.959Z,3.20
2022-10-05T03:53:19.293Z,2.53
2022-10-05T03:55:59.005Z,3.58
2022-10-05T03:58:31.957Z,3.30
2022-10-05T04:01:05.792Z,2.50
2022-10-05T04:03:42.354Z,3.28
2022-10-05T04:06:22.670Z,3.20
2022-10-05T04:09:02.292Z,3.05
2022-10-05T04:11:36.000Z,3.20
2022-10-05T04:14:07.528Z,3.38
2022-10-05T04:17:12.273Z,2.67
2022-10-05T04:19:45.288Z,2.95
2022-10-05T04:22:43.394Z,2.95
2022-10-05T04:25:19.494Z,3.03
2022-10-05T04:28:06.331Z,3.38
2022-10-05T04:30:38.872Z,2.97
2022-10-05T04:36:13.299Z,2.90
2022-10-05T04:41:33.087Z,3.60
2022-10-05T04:44:17.526Z,4.00
2022-10-05T04:47:02.316Z,3.50
2022-10-05T04:49:48.432Z,3.90
2022-10-05T04:52:27.699Z,4.97
2022-10-05T04:55:04.665Z,4.43
2022-10-05T04:57:45.206Z,4.20
2022-10-05T05:00:25.098Z,4.38
2022-10-05T05:03:15.649Z,3.47
2022-10-05T05:06:15.288Z,3.40
2022-10-05T05:08:53.357Z,3.53
2022-10-05T05:11:52.934Z,4.85
2022-10-05T05:14:44.662Z,6.78
2022-10-05T05:17:13.238Z,6.55
2022-10-05T05:20:21.017Z,5.75
2022-10-05T05:22:57.633Z,6.57
2022-10-05T05:25:36.821Z,6.63
2022-10-05T05:28:20.610Z,7.90
2022-10-05T05:30:57.430Z,6.20
2022-10-05T05:33:41.289Z,4.32
2022-10-05T05:36:22.858Z,4.32
2022-10-05T05:39:49.352Z,3.17
2022-10-05T05:42:56.625Z,3.00
2022-10-05T05:45:40.754Z,2.45
2022-10-05T05:48:26.822Z,2.50
2022-10-05T05:51:13.131Z,3.30
2022-10-05T05:53:59.214Z,2.95
2022-10-05T05:56:34.855Z,2.60
2022-10-05T05:59:16.401Z,2.78
2022-10-05T06:01:53.082Z,2.80
2022-10-05T06:04:31.458Z,2.97
2022-10-05T06:07:03.943Z,3.03
2022-10-05T06:09:38.134Z,2.95
2022-10-05T06:12:38.556Z,2.85
2022-10-05T06:15:48.100Z,3.55
2022-10-05T06:18:21.459Z,3.92
2022-10-05T06:21:02.468Z,2.58
2022-10-05T06:23:46.665Z,4.15
2022-10-05T06:26:21.457Z,3.30
2022-10-05T06:28:59.382Z,3.97
2022-10-05T06:31:41.897Z,4.22
2022-10-05T06:34:27.960Z,3.97
2022-10-05T06:37:11.063Z,3.42
2022-10-05T06:39:52.152Z,3.20
2022-10-05T06:42:34.722Z,3.22
2022-10-05T06:45:45.596Z,3.22
2022-10-05T06:48:41.862Z,3.45
2022-10-05T06:51:52.088Z,3.72
2022-10-05T06:54:50.151Z,3.65
2022-10-05T06:57:22.291Z,3.45
2022-10-05T06:59:58.086Z,3.60
2022-10-05T07:02:39.262Z,3.45
2022-10-05T07:05:28.714Z,3.70
2022-10-05T07:08:00.584Z,3.60
2022-10-05T07:10:37.457Z,3.63
2022-10-05T07:13:36.623Z,3.65
2022-10-05T07:16:38.724Z,3.10
2022-10-05T07:19:22.349Z,3.28
2022-10-05T07:22:40.729Z,3.88
2022-10-05T07:25:28.413Z,3.45
2022-10-05T07:28:05.211Z,2.70
2022-10-05T07:30:49.082Z,3.05
2022-10-05T07:33:27.240Z,3.28
2022-10-05T07:36:54.405Z,3.35
2022-10-05T07:39:59.222Z,3.92
2022-10-05T07:42:50.483Z,3.65
2022-10-05T07:45:29.604Z,3.35
2022-10-05T07:48:33.572Z,3.47
2022-10-05T07:51:20.045Z,3.88
2022-10-05T07:54:25.896Z,3.75
2022-10-05T07:56:59.056Z,4.75
2022-10-05T07:59:37.292Z,4.55
2022-10-05T08:02:22.993Z,3.47
2022-10-05T08:05:02.655Z,3.90
2022-10-05T08:07:34.786Z,3.70
2022-10-05T08:10:22.007Z,3.67
2022-10-05T08:12:59.122Z,3.38
2022-10-05T08:15:43.184Z,3.10
2022-10-05T08:18:25.399Z,3.38
2022-10-05T08:20:58.238Z,3.40
2022-10-05T08:23:38.780Z,3.85
2022-10-05T08:26:27.315Z,3.13
2022-10-05T08:29:30.026Z,1.98
2022-10-05T08:32:30.022Z,2.83
2022-10-05T08:35:35.899Z,2.78
2022-10-05T08:38:10.734Z,2.33
2022-10-05T08:41:01.114Z,2.60
2022-10-05T08:43:59.010Z,2.40
2022-10-05T08:46:47.667Z,2.10
2022-10-05T08:49:23.828Z,2.10
2022-10-05T08:52:12.304Z,2.30
2022-10-05T08:54:47.723Z,2.25
2022-10-05T08:57:29.931Z,2.20
2022-10-05T09:00:26.072Z,1.65
2022-10-05T09:03:08.850Z,1.70
2022-10-05T09:05:42.300Z,1.63
2022-10-05T09:08:27.773Z,1.52
2022-10-05T09:11:17.309Z,1.40
2022-10-05T09:14:14.838Z,1.70
2022-10-05T09:16:50.828Z,1.80
2022-10-05T09:19:42.884Z,2.10
2022-10-05T09:22:33.636Z,2.05
2022-10-05T09:25:24.144Z,1.90
2022-10-05T09:27:59.046Z,1.75
2022-10-05T09:30:42.969Z,2.17
2022-10-05T09:33:25.935Z,1.80
2022-10-05T09:39:20.125Z,1.90
2022-10-05T09:42:22.392Z,1.63
2022-10-05T09:45:26.711Z,1.90
2022-10-05T09:48:20.506Z,1.45
2022-10-05T09:50:50.268Z,1.50
2022-10-05T09:54:05.658Z,1.73
2022-10-05T09:56:56.658Z,1.60
2022-10-05T09:59:39.602Z,1.60
2022-10-05T10:02:17.153Z,1.40
2022-10-05T10:05:09.387Z,1.48
2022-10-05T10:08:10.449Z,1.70
2022-10-05T10:10:37.846Z,1.60
2022-10-05T10:13:13.692Z,1.73
2022-10-05T10:15:59.787Z,1.40
2022-10-05T10:18:40.901Z,1.50
2022-10-05T10:21:29.630Z,1.65
2022-10-05T10:24:10.663Z,1.58
2022-10-05T10:26:49.853Z,1.33
2022-10-05T10:29:38.232Z,1.50
2022-10-05T10:32:05.496Z,1.40
2022-10-05T10:35:14.350Z,1.50
2022-10-05T10:38:11.983Z,1.40
2022-10-05T10:40:56.322Z,1.00
2022-10-05T10:44:00.358Z,1.30
2022-10-05T10:46:48.962Z,1.20
2022-10-05T10:49:34.416Z,1.30
2022-10-05T10:52:19.329Z,1.92
2022-10-05T10:55:31.219Z,1.13
2022-10-05T10:58:37.937Z,1.40
2022-10-05T11:01:28.935Z,1.33
2022-10-05T11:04:22.870Z,1.45
2022-10-05T11:07:37.544Z,1.83
2022-10-05T11:10:29.530Z,1.40
2022-10-05T11:13:21.810Z,1.67
2022-10-05T11:15:55.390Z,1.50
2022-10-05T11:18:42.321Z,1.70
2022-10-05T11:21:26.514Z,1.40
2022-10-05T11:24:23.029Z,1.40
2022-10-05T11:30:17.056Z,1.60
2022-10-05T11:32:47.014Z,1.42
2022-10-05T11:35:41.617Z,1.30
2022-10-05T11:38:46.281Z,1.23
2022-10-05T11:41:22.773Z,1.40
2022-10-05T11:44:08.138Z,1.98
2022-10-05T11:46:38.317Z,1.30
2022-10-05T11:49:20.483Z,1.30
2022-10-05T11:51:52.663Z,1.35
2022-10-05T11:55:09.421Z,1.25
2022-10-05T11:57:50.466Z,1.30
2022-10-05T12:00:19.066Z,1.65
2022-10-05T12:03:00.583Z,1.27
2022-10-05T12:05:42.067Z,1.30
2022-10-05T12:08:35.966Z,1.30
2022-10-05T12:11:08.792Z,1.63
2022-10-05T12:13:56.272Z,1.23
2022-10-05T12:16:35.040Z,1.65
2022-10-05T12:19:29.890Z,1.73
2022-10-05T12:22:04.327Z,1.65
2022-10-05T12:24:37.287Z,1.20
2022-10-05T12:30:11.703Z,1.45
2022-10-05T12:33:01.903Z,1.90
2022-10-05T12:35:50.242Z,1.67
2022-10-05T12:38:46.775Z,1.15
2022-10-05T12:41:19.929Z,1.50
2022-10-05T12:44:09.259Z,1.40
2022-10-05T12:47:11.233Z,1.50
2022-10-05T12:49:44.046Z,1.60
2022-10-05T12:52:32.233Z,1.55
2022-10-05T12:55:29.104Z,1.67
2022-10-05T12:58:19.114Z,1.20
2022-10-05T13:01:15.202Z,1.33
2022-10-05T13:04:17.801Z,1.17
2022-10-05T13:07:08.562Z,1.67
2022-10-05T13:10:04.295Z,1.20
2022-10-05T13:12:41.671Z,1.27
2022-10-05T13:15:36.360Z,1.52
2022-10-05T13:18:29.249Z,1.50
2022-10-05T13:21:18.692Z,1.77
2022-10-05T13:24:07.401Z,1.50
2022-10-05T13:26:37.981Z,1.33
2022-10-05T13:29:13.327Z,1.40
2022-10-05T13:32:13.984Z,1.67
2022-10-05T13:34:50.673Z,1.30
2022-10-05T13:37:38.551Z,1.30
2022-10-05T13:40:24.955Z,1.38
2022-10-05T13:43:00.931Z,1.63
2022-10-05T13:45:55.701Z,1.17
2022-10-05T13:48:37.011Z,1.77
2022-10-05T13:51:16.236Z,1.13
2022-10-05T13:53:56.178Z,1.73
2022-10-05T13:56:31.199Z,1.50
2022-10-05T13:59:11.986Z,1.20
2022-10-05T14:01:49.555Z,2.30
2022-10-05T14:04:29.835Z,1.20
2022-10-05T14:06:57.432Z,1.38
2022-10-05T14:09:35.130Z,1.92
2022-10-05T14:12:05.021Z,1.30
2022-10-05T14:14:42.714Z,1.00
2022-10-05T14:17:32.186Z,1.40
2022-10-05T14:20:03.612Z,1.05
2022-10-05T14:22:40.866Z,1.40
2022-10-05T14:25:07.930Z,1.67
2022-10-05T14:27:49.246Z,1.15
2022-10-05T14:30:16.410Z,1.40
2022-10-05T14:33:03.748Z,1.40
2022-10-05T14:35:45.061Z,1.33
2022-10-05T14:38:32.037Z,1.58
2022-10-05T14:41:17.652Z,1.33
2022-10-05T14:44:12.578Z,0.90
2022-10-05T14:46:52.711Z,1.23
2022-10-05T14:49:30.671Z,1.40
2022-10-05T14:51:58.863Z,1.10
2022-10-05T14:54:25.959Z,1.50
2022-10-05T14:57:26.297Z,1.40
2022-10-05T15:00:19.043Z,1.17
2022-10-05T15:02:49.133Z,2.15
2022-10-05T15:05:26.894Z,1.35
2022-10-05T15:08:01.864Z,1.10
2022-10-05T15:10:29.755Z,1.45
2022-10-05T15:13:11.204Z,1.40
2022-10-05T15:16:00.404Z,1.63
2022-10-05T15:18:37.560Z,1.67
2022-10-05T15:21:42.455Z,1.10
2022-10-05T15:24:20.416Z,1.65
2022-10-05T15:26:55.042Z,1.27
2022-10-05T15:29:55.130Z,1.63
2022-10-05T15:32:42.776Z,1.00
2022-10-05T15:35:26.465Z,1.40
2022-10-05T15:38:12.226Z,1.58
2022-10-05T15:40:59.576Z,1.45
2022-10-05T15:43:46.137Z,1.33
2022-10-05T15:46:34.586Z,1.50
2022-10-05T15:49:19.978Z,1.40
2022-10-05T15:52:02.022Z,1.50
2022-10-05T15:55:06.524Z,1.60
2022-10-05T15:57:39.104Z,1.25
2022-10-05T16:00:18.963Z,1.20
2022-10-05T16:02:55.225Z,1.75
2022-10-05T16:06:01.986Z,1.00
2022-10-05T16:09:06.125Z,1.45
2022-10-05T16:12:30.395Z,1.65
2022-10-05T16:15:06.839Z,1.08
2022-10-05T16:17:54.337Z,1.20
2022-10-05T16:20:35.964Z,1.20
2022-10-05T16:23:27.967Z,1.58
2022-10-05T16:26:09.315Z,1.70
2022-10-05T16:29:08.850Z,1.40
2022-10-05T16:31:54.657Z,2.28
2022-10-05T16:34:50.454Z,1.80
2022-10-05T16:37:47.360Z,1.90
2022-10-05T16:40:23.623Z,1.80
2022-10-05T16:43:15.896Z,1.48
2022-10-05T16:45:52.234Z,1.70
2022-10-05T16:48:37.059Z,1.55
2022-10-05T16:51:24.342Z,1.35
2022-10-05T16:54:03.584Z,1.60
2022-10-05T16:56:45.593Z,1.20
2022-10-05T16:59:41.678Z,1.20
2022-10-05T17:02:27.625Z,1.58
2022-10-05T17:05:38.843Z,1.60
2022-10-05T17:08:41.418Z,1.73
2022-10-05T17:11:20.207Z,1.88
2022-10-05T17:14:32.053Z,2.88
2022-10-05T17:17:28.818Z,1.85
2022-10-05T17:20:23.835Z,1.60
2022-10-05T17:22:55.897Z,1.60
2022-10-05T17:25:47.898Z,2.00
2022-10-05T17:28:51.836Z,1.45
2022-10-05T17:31:22.887Z,1.40
2022-10-05T17:33:59.285Z,1.60
2022-10-05T17:36:50.642Z,1.42
2022-10-05T17:39:49.292Z,1.85
2022-10-05T17:42:31.682Z,2.00
2022-10-05T17:45:20.064Z,1.23
2022-10-05T17:48:05.323Z,2.05
2022-10-05T17:51:07.399Z,2.53
2022-10-05T17:53:53.144Z,1.33
2022-10-05T17:56:22.753Z,1.20
2022-10-05T17:58:54.719Z,1.13
2022-10-05T18:01:33.996Z,1.35
2022-10-05T18:04:13.419Z,1.40
2022-10-05T18:06:48.256Z,1.40
2022-10-05T18:09:21.175Z,1.63
2022-10-05T18:12:19.231Z,1.30
2022-10-05T18:14:55.349Z,1.50
2022-10-05T18:17:45.191Z,1.40
2022-10-05T18:20:22.014Z,1.60
2022-10-05T18:22:51.231Z,1.90
2022-10-05T18:25:39.709Z,2.92
2022-10-05T18:28:25.770Z,4.47
2022-10-05T18:31:30.808Z,5.10
2022-10-05T18:34:13.482Z,5.28
2022-10-05T18:36:59.113Z,5.68
2022-10-05T18:39:58.415Z,5.07
2022-10-05T18:43:00.616Z,5.85
2022-10-05T18:45:37.926Z,5.55
2022-10-05T18:48:50.049Z,4.45
2022-10-05T18:51:53.912Z,5.85
2022-10-05T18:54:32.280Z,5.53
2022-10-05T18:57:07.607Z,4.80
2022-10-05T19:00:27.595Z,4.50
2022-10-05T19:03:01.071Z,3.90
2022-10-05T19:05:54.491Z,3.97
2022-10-05T19:08:40.799Z,5.18
2022-10-05T19:11:36.488Z,4.97
2022-10-05T19:14:31.674Z,4.68
2022-10-05T19:17:09.792Z,5.13
2022-10-05T19:20:01.964Z,4.50
2022-10-05T19:23:12.342Z,5.03
2022-10-05T19:25:53.217Z,5.60
2022-10-05T19:28:20.838Z,5.55
2022-10-05T19:31:29.032Z,6.43
2022-10-05T19:34:33.401Z,6.00
2022-10-05T19:37:13.309Z,6.93
2022-10-05T19:39:55.787Z,7.30
2022-10-05T19:42:28.971Z,6.67
2022-10-05T19:47:44.896Z,7.70
2022-10-05T19:50:28.442Z,6.82
2022-10-05T19:53:08.337Z,6.63
2022-10-05T19:55:41.845Z,6.82
2022-10-05T19:58:24.780Z,5.80
2022-10-05T20:01:04.575Z,5.55
2022-10-05T20:03:37.123Z,4.97
2022-10-05T20:06:07.134Z,5.30
2022-10-05T20:08:54.502Z,5.35
2022-10-05T20:11:23.869Z,4.93
2022-10-05T20:13:53.927Z,4.82
2022-10-05T20:16:53.192Z,5.03
2022-10-05T20:19:49.878Z,4.78
2022-10-05T20:22:39.982Z,4.80
2022-10-05T20:25:23.826Z,4.78
2022-10-05T20:30:29.269Z,4.10
2022-10-05T20:33:03.834Z,4.65
2022-10-05T20:35:32.397Z,4.82
2022-10-05T20:38:00.359Z,5.15
2022-10-05T20:40:29.830Z,4.93
2022-10-05T20:42:58.428Z,5.55
2022-10-05T20:45:26.100Z,4.68
2022-10-05T20:47:53.347Z,5.40
2022-10-05T20:50:22.494Z,5.00
2022-10-05T20:52:49.783Z,4.97
2022-10-05T20:55:18.007Z,4.35
2022-10-05T20:57:46.346Z,4.55
2022-10-05T21:00:13.981Z,4.57
2022-10-05T21:02:41.252Z,4.47
2022-10-05T21:05:09.059Z,4.70
2022-10-05T21:07:36.214Z,4.22
2022-10-05T21:10:04.299Z,3.80
2022-10-05T21:12:33.018Z,4.07
2022-10-05T21:15:00.555Z,3.35
2022-10-05T21:17:27.843Z,3.35
2022-10-05T21:19:55.080Z,3.28
2022-10-05T21:22:22.620Z,3.50
2022-10-05T21:24:49.724Z,2.95
2022-10-05T21:27:17.103Z,3.17
2022-10-05T21:29:45.539Z,3.22
2022-10-05T21:32:12.620Z,3.10
2022-10-05T21:34:40.540Z,3.03
2022-10-05T21:37:08.297Z,2.83
2022-10-05T21:39:36.858Z,2.90
2022-10-05T21:42:04.297Z,2.78
2022-10-05T21:44:31.428Z,2.70
2022-10-05T21:46:58.544Z,2.15
2022-10-05T21:49:27.220Z,2.30
2022-10-05T21:51:54.664Z,2.30
2022-10-05T21:54:22.978Z,2.90
2022-10-05T21:56:52.837Z,2.33
2022-10-05T21:59:22.662Z,2.40
2022-10-05T22:01:49.832Z,2.60
2022-10-05T22:04:17.037Z,1.85
2022-10-05T22:06:44.401Z,2.67
2022-10-05T22:09:12.278Z,2.45
2022-10-05T22:11:39.379Z,2.47
2022-10-05T22:14:06.624Z,2.13
2022-10-05T22:16:37.447Z,2.50
2022-10-05T22:19:07.142Z,2.47
2022-10-05T22:21:41.806Z,2.50
2022-10-05T22:24:11.798Z,1.95
2022-10-05T22:26:42.013Z,2.28
2022-10-05T22:29:10.500Z,1.95
2022-10-05T22:31:40.531Z,2.00
2022-10-05T22:34:07.803Z,1.90
2022-10-05T22:36:36.094Z,2.00
2022-10-05T22:39:03.963Z,2.33
2022-10-05T22:41:31.022Z,2.45
2022-10-05T22:43:58.217Z,2.50
2022-10-05T22:46:25.392Z,2.20
2022-10-05T22:48:52.626Z,1.80
2022-10-05T22:51:19.698Z,2.45
2022-10-05T22:53:46.985Z,2.15
2022-10-05T22:56:14.360Z,1.88
2022-10-05T22:58:42.582Z,2.08
2022-10-05T23:01:12.240Z,2.38
2022-10-05T23:03:39.627Z,2.13
2022-10-05T23:06:09.284Z,2.25
2022-10-05T23:08:39.467Z,2.55
2022-10-05T23:11:11.616Z,2.25
2022-10-05T23:13:39.468Z,1.70
2022-10-05T23:16:08.636Z,1.65
2022-10-05T23:18:35.950Z,1.88
2022-10-05T23:21:03.866Z,2.25
2022-10-05T23:23:31.008Z,1.90
2022-10-05T23:26:02.062Z,2.03
2022-10-05T23:28:30.269Z,1.85
2022-10-05T23:31:05.846Z,1.75
2022-10-05T23:33:34.118Z,1.80
2022-10-05T23:36:10.252Z,1.88
2022-10-05T23:38:37.772Z,2.20
2022-10-05T23:41:05.917Z,2.10
2022-10-05T23:43:33.674Z,2.13
2022-10-05T23:46:01.404Z,2.15
2022-10-05T23:48:30.824Z,1.80
2022-10-05T23:50:58.612Z,2.20
2022-10-05T23:53:26.763Z,1.70
2022-10-05T23:55:54.516Z,2.17
2022-10-05T23:58:23.127Z,1.80
